Time;durP1;ratioP1;P1;durP2;ratioP2;P2;SDS_P1;SDS_P2;PMS_P1;PMS_P2;Temp;Humidity;BMP_temperature;BMP_pressure;BME280_temperature;BME280_humidity;BME280_pressure;Samples;Min_cycle;Max_cycle;Signal;HPM_P1;HPM_P2
2022/01/23 00:01:51;;;;;;;8.02;3.85;;;2.70;93.10;;;;;;5125879;27;20118;-65
2022/01/23 00:04:17;;;;;;;6.07;3.78;;;2.70;92.80;;;;;;5134036;27;20149;-64
2022/01/23 00:07:04;;;;;;;5.05;3.58;;;2.70;92.60;;;;;;5134628;27;20422;-65
2022/01/23 00:09:31;;;;;;;7.50;3.72;;;2.70;92.40;;;;;;5133629;27;20023;-65
2022/01/23 00:11:58;;;;;;;7.45;3.72;;;2.80;92.30;;;;;;5134572;27;20094;-65
2022/01/23 00:17:18;;;;;;;7.45;3.58;;;2.90;92.30;;;;;;5134050;27;20067;-65
2022/01/23 00:19:52;;;;;;;6.25;4.05;;;2.90;92.00;;;;;;5134127;27;20494;-64
2022/01/23 00:22:21;;;;;;;7.95;3.80;;;2.90;92.00;;;;;;5133865;27;20040;-64
2022/01/23 00:30:32;;;;;;;6.38;3.10;;;2.90;92.00;;;;;;5134381;27;20030;-64
2022/01/23 00:33:01;;;;;;;6.20;3.75;;;2.90;91.90;;;;;;5134268;27;20034;-64
2022/01/23 00:35:28;;;;;;;7.75;3.40;;;2.90;91.70;;;;;;5133313;27;20405;-65
2022/01/23 00:37:55;;;;;;;7.88;3.92;;;2.90;91.50;;;;;;5134060;27;20379;-64
2022/01/23 00:40:22;;;;;;;8.55;3.80;;;2.90;91.50;;;;;;5116784;27;20024;-64
2022/01/23 00:42:48;;;;;;;7.13;4.10;;;2.90;91.40;;;;;;5113162;28;20027;-64
2022/01/23 00:45:34;;;;;;;8.93;3.67;;;2.90;91.30;;;;;;5113551;28;20039;-64
2022/01/23 00:48:07;;;;;;;5.20;3.30;;;2.90;91.40;;;;;;5113420;28;20112;-64
2022/01/23 00:50:36;;;;;;;5.82;3.53;;;2.90;91.30;;;;;;5112761;28;20062;-66
2022/01/23 00:53:03;;;;;;;11.02;5.00;;;2.90;91.20;;;;;;5113258;28;20016;-65
2022/01/23 00:55:29;;;;;;;6.15;4.20;;;2.90;91.20;;;;;;5093839;28;20051;-66
2022/01/23 00:57:55;;;;;;;6.82;3.47;;;2.90;91.40;;;;;;5113070;28;20072;-66
2022/01/23 01:00:22;;;;;;;9.35;4.07;;;2.90;91.40;;;;;;5132825;27;20053;-65
2022/01/23 01:02:48;;;;;;;5.50;3.60;;;2.90;91.40;;;;;;5133586;27;20519;-65
2022/01/23 01:05:14;;;;;;;8.02;3.92;;;2.90;91.40;;;;;;5133550;27;20027;-64
2022/01/23 01:07:39;;;;;;;4.40;3.08;;;2.90;91.50;;;;;;5132889;27;20042;-64
2022/01/23 01:10:12;;;;;;;8.93;3.33;;;2.90;91.50;;;;;;5133448;27;20152;-64
2022/01/23 01:12:44;;;;;;;7.03;3.50;;;3.00;91.30;;;;;;5132931;27;20026;-64
2022/01/23 01:31:39;;;;;;;5.40;4.00;;;3.00;91.30;;;;;;5133290;27;20489;-64
2022/01/23 01:34:10;;;;;;;6.95;4.15;;;3.10;91.40;;;;;;5133017;27;20035;-64
2022/01/23 01:36:50;;;;;;;7.25;4.57;;;3.10;91.70;;;;;;5132576;27;20076;-64
2022/01/23 01:39:21;;;;;;;6.05;3.85;;;3.10;91.90;;;;;;5133048;27;20023;-64
2022/01/23 01:41:46;;;;;;;7.93;4.53;;;3.10;92.10;;;;;;5132374;27;20412;-65
2022/01/23 01:44:13;;;;;;;7.88;5.20;;;3.10;92.30;;;;;;5132980;27;20090;-64
2022/01/23 01:46:39;;;;;;;11.25;5.63;;;3.10;92.70;;;;;;5132418;27;20028;-64
2022/01/23 01:49:06;;;;;;;8.82;5.40;;;3.10;92.90;;;;;;5132571;27;20613;-64
2022/01/23 01:51:32;;;;;;;9.77;5.07;;;3.10;93.40;;;;;;5132382;27;20019;-64
2022/01/23 01:54:06;;;;;;;8.60;5.40;;;3.10;93.40;;;;;;5132673;28;20031;-64
2022/01/23 01:56:40;;;;;;;8.93;5.20;;;3.10;93.60;;;;;;5132269;28;20027;-64
2022/01/23 01:59:18;;;;;;;6.60;4.80;;;3.10;93.90;;;;;;5132483;28;20438;-64
2022/01/23 02:23:02;;;;;;;7.05;5.25;;;3.20;95.80;;;;;;5131639;28;20076;-64
2022/01/23 02:50:33;;;;;;;7.78;5.68;;;3.10;95.80;;;;;;5131938;28;20030;-64
2022/01/23 02:55:43;;;;;;;9.27;6.50;;;3.20;97.20;;;;;;5134687;27;20093;-66
2022/01/23 02:58:12;;;;;;;13.45;7.20;;;3.20;97.30;;;;;;5135800;27;20019;-65
2022/01/23 03:00:48;;;;;;;11.98;7.75;;;3.20;97.60;;;;;;5135327;27;20023;-64
2022/01/23 03:03:22;;;;;;;12.77;8.10;;;3.20;97.80;;;;;;5135685;27;20110;-64
2022/01/23 03:06:09;;;;;;;11.43;7.45;;;3.20;98.30;;;;;;5135029;27;20033;-64
2022/01/23 03:08:59;;;;;;;12.25;9.20;;;3.20;98.60;;;;;;5134142;27;20305;-64
2022/01/23 03:14:10;;;;;;;10.20;8.30;;;3.20;99.30;;;;;;5134941;27;20051;-65
2022/01/23 03:30:16;;;;;;;;;;;3.30;99.90;;;;;;5135958;27;20032;-65
2022/01/23 03:32:46;;;;;;;13.27;11.25;;;3.30;99.90;;;;;;5134560;27;20348;-64
2022/01/23 03:35:12;;;;;;;14.25;11.00;;;3.30;99.90;;;;;;5134990;27;20042;-65
2022/01/23 03:37:38;;;;;;;15.15;11.52;;;3.30;99.90;;;;;;5134521;27;20019;-65
2022/01/23 03:40:05;;;;;;;11.95;10.60;;;3.30;99.90;;;;;;5116534;27;20327;-64
2022/01/23 03:42:34;;;;;;;13.82;11.68;;;3.30;99.90;;;;;;5134771;27;20023;-65
2022/01/23 03:47:38;;;;;;;13.32;11.52;;;3.30;99.90;;;;;;5134910;27;20028;-64
2022/01/23 03:50:11;;;;;;;16.08;11.82;;;3.30;99.90;;;;;;5134726;27;20475;-65
2022/01/23 03:52:37;;;;;;;13.60;12.15;;;3.30;99.90;;;;;;5134341;27;20033;-63
2022/01/23 03:55:06;;;;;;;12.68;11.38;;;3.30;99.90;;;;;;5134585;27;20476;-63
2022/01/23 03:57:31;;;;;;;13.60;12.20;;;3.30;99.90;;;;;;5134884;27;20027;-64
2022/01/23 03:59:57;;;;;;;13.55;12.00;;;3.30;99.90;;;;;;5133986;27;20050;-64
2022/01/23 04:02:23;;;;;;;13.90;11.75;;;3.30;99.90;;;;;;5134580;27;20024;-64
2022/01/23 04:04:48;;;;;;;12.90;11.55;;;3.30;99.90;;;;;;5134112;27;20093;-64
2022/01/23 04:07:19;;;;;;;12.32;10.90;;;3.30;99.90;;;;;;5134856;27;20038;-64
2022/01/23 04:09:45;;;;;;;12.13;10.87;;;3.30;99.90;;;;;;5134138;27;20484;-64
2022/01/23 04:12:26;;;;;;;12.10;10.90;;;3.30;99.90;;;;;;5134523;27;20038;-64
2022/01/23 04:32:06;;;;;;;5.45;3.90;;;3.40;99.90;;;;;;5117617;27;20114;-66
2022/01/23 04:34:48;;;;;;;4.32;3.92;;;3.40;99.90;;;;;;5132005;27;20042;-65
2022/01/23 04:45:31;;;;;;;3.97;3.20;;;3.30;99.90;;;;;;5112984;28;20096;-66
2022/01/23 05:01:52;;;;;;;4.50;3.55;;;3.40;99.90;;;;;;5112995;28;20111;-66
2022/01/23 05:04:27;;;;;;;4.55;3.75;;;3.40;99.90;;;;;;5127847;27;20439;-66
2022/01/23 05:07:02;;;;;;;3.45;3.15;;;3.40;99.90;;;;;;5132740;27;20075;-65
2022/01/23 05:09:28;;;;;;;3.47;2.85;;;3.40;99.90;;;;;;5133422;27;20031;-65
2022/01/23 05:11:59;;;;;;;2.80;2.40;;;3.40;99.90;;;;;;5132505;27;20539;-64
2022/01/23 05:14:31;;;;;;;2.83;1.52;;;3.40;99.90;;;;;;5114778;27;20031;-64
2022/01/23 05:16:58;;;;;;;1.42;1.20;;;3.30;99.90;;;;;;5132642;27;20478;-64
2022/01/23 05:19:23;;;;;;;1.55;1.38;;;3.20;99.90;;;;;;5133093;27;20058;-65
2022/01/23 05:24:39;;;;;;;2.72;1.80;;;3.20;99.90;;;;;;5133084;27;20122;-65
2022/01/23 05:27:08;;;;;;;1.70;1.60;;;3.20;99.90;;;;;;5132275;27;20072;-65
2022/01/23 05:29:34;;;;;;;1.90;1.63;;;3.20;99.90;;;;;;5132847;27;20110;-65
2022/01/23 05:32:01;;;;;;;2.50;1.95;;;3.20;99.90;;;;;;5132388;27;20027;-63
2022/01/23 05:34:27;;;;;;;2.42;2.10;;;3.20;99.90;;;;;;5132756;27;20433;-63
2022/01/23 05:36:53;;;;;;;2.70;2.08;;;3.20;99.90;;;;;;5132481;27;20031;-64
2022/01/23 05:39:21;;;;;;;1.63;1.50;;;3.20;99.90;;;;;;5132971;27;20091;-64
2022/01/23 05:41:52;;;;;;;2.08;1.67;;;3.20;99.90;;;;;;5132205;27;20026;-63
2022/01/23 05:44:18;;;;;;;1.77;1.55;;;3.20;99.90;;;;;;5132717;27;20467;-64
2022/01/23 05:46:44;;;;;;;2.00;1.70;;;3.20;99.90;;;;;;5132135;27;20031;-65
2022/01/23 05:49:09;;;;;;;2.35;1.92;;;3.20;99.90;;;;;;5133058;27;20019;-64
2022/01/23 05:51:35;;;;;;;3.85;2.50;;;3.30;99.90;;;;;;5132443;27;20026;-65
2022/01/23 05:54:00;;;;;;;3.13;2.35;;;3.30;99.90;;;;;;5131884;27;20058;-65
2022/01/23 05:56:27;;;;;;;2.78;2.00;;;3.30;99.90;;;;;;5132646;28;20069;-64
2022/01/23 05:58:54;;;;;;;4.40;2.50;;;3.30;99.90;;;;;;5131578;28;20506;-64
2022/01/23 06:01:19;;;;;;;3.13;2.42;;;3.30;99.90;;;;;;5132371;28;20019;-65
2022/01/23 06:03:45;;;;;;;2.47;2.25;;;3.30;99.90;;;;;;5132044;28;20026;-64
2022/01/23 06:06:11;;;;;;;4.22;2.75;;;3.30;99.90;;;;;;5132546;28;20106;-65
2022/01/23 06:08:36;;;;;;;4.35;2.78;;;3.40;99.90;;;;;;5132500;28;20027;-66
2022/01/23 06:11:02;;;;;;;3.17;2.55;;;3.40;99.90;;;;;;5132250;28;20413;-65
2022/01/23 06:13:28;;;;;;;4.68;3.08;;;3.40;99.90;;;;;;5113884;28;20023;-65
2022/01/23 06:15:55;;;;;;;3.10;2.80;;;3.40;99.90;;;;;;5132064;27;20031;-63
2022/01/23 06:18:21;;;;;;;3.55;3.25;;;3.40;99.90;;;;;;5136822;27;20102;-64
2022/01/23 06:20:47;;;;;;;3.13;2.83;;;3.40;99.90;;;;;;5135721;27;20103;-63
2022/01/23 06:23:13;;;;;;;3.28;2.97;;;3.30;99.90;;;;;;5136686;27;20425;-64
2022/01/23 06:25:44;;;;;;;3.92;2.95;;;3.40;99.90;;;;;;5136896;27;20031;-64
2022/01/23 06:28:12;;;;;;;3.70;3.30;;;3.30;99.90;;;;;;5135638;27;20047;-64
2022/01/23 06:30:38;;;;;;;3.53;3.17;;;3.40;99.90;;;;;;5125322;27;20024;-64
2022/01/23 06:33:07;;;;;;;3.33;2.97;;;3.30;99.90;;;;;;5115119;28;20058;-66
2022/01/23 06:35:35;;;;;;;3.65;3.00;;;3.40;99.90;;;;;;5115670;28;20027;-64
2022/01/23 06:38:01;;;;;;;5.63;3.30;;;3.30;99.90;;;;;;5114915;28;20102;-63
2022/01/23 06:40:27;;;;;;;4.60;3.63;;;3.30;99.90;;;;;;5115745;28;20099;-64
2022/01/23 06:42:52;;;;;;;3.85;3.53;;;3.30;99.90;;;;;;5114961;28;20376;-64
2022/01/23 06:45:18;;;;;;;5.68;3.90;;;3.30;99.90;;;;;;5115659;28;20034;-64
2022/01/23 06:47:44;;;;;;;4.38;3.72;;;3.30;99.90;;;;;;5115085;28;20020;-65
2022/01/23 06:50:09;;;;;;;4.43;3.72;;;3.30;99.90;;;;;;5114404;28;20031;-65
2022/01/23 06:52:35;;;;;;;7.03;4.05;;;3.30;99.90;;;;;;5115559;28;20027;-64
2022/01/23 06:55:01;;;;;;;4.68;4.18;;;3.30;99.90;;;;;;5114411;28;20062;-64
2022/01/23 06:57:26;;;;;;;6.13;3.90;;;3.30;99.90;;;;;;5115343;28;20019;-65
2022/01/23 06:59:52;;;;;;;4.65;4.22;;;3.30;99.90;;;;;;5128459;27;20019;-64
2022/01/23 07:02:17;;;;;;;5.80;4.47;;;3.30;99.90;;;;;;5135795;27;20050;-65
2022/01/23 07:04:43;;;;;;;4.68;4.18;;;3.40;99.90;;;;;;5135702;27;20084;-65
2022/01/23 07:07:09;;;;;;;7.82;4.18;;;3.40;99.90;;;;;;5134844;27;20289;-64
2022/01/23 07:09:34;;;;;;;4.93;4.50;;;3.40;99.90;;;;;;5135720;27;20437;-64
2022/01/23 07:12:00;;;;;;;5.40;4.90;;;3.40;99.90;;;;;;5134943;27;20102;-64
2022/01/23 07:14:26;;;;;;;5.25;4.53;;;3.40;99.90;;;;;;5135753;27;20035;-65
2022/01/23 07:16:51;;;;;;;5.65;4.82;;;3.40;99.90;;;;;;5135013;27;20518;-65
2022/01/23 07:19:17;;;;;;;6.20;4.90;;;3.30;99.90;;;;;;5117577;27;20126;-66
2022/01/23 07:21:43;;;;;;;5.88;5.13;;;3.40;99.90;;;;;;5135828;27;20027;-65
2022/01/23 07:24:09;;;;;;;5.78;4.68;;;3.40;99.90;;;;;;5134806;27;20110;-65
2022/01/23 07:26:35;;;;;;;6.05;4.82;;;3.30;99.90;;;;;;5135353;27;20027;-67
2022/01/23 07:29:03;;;;;;;5.93;5.10;;;3.30;99.90;;;;;;5135050;27;20019;-66
2022/01/23 07:34:05;;;;;;;6.70;5.38;;;3.30;99.90;;;;;;5134753;27;20482;-65
2022/01/23 07:36:31;;;;;;;6.40;4.95;;;3.30;99.90;;;;;;5135658;27;20035;-66
2022/01/23 07:38:56;;;;;;;6.75;5.70;;;3.30;99.90;;;;;;5134622;27;20031;-65
2022/01/23 07:41:22;;;;;;;6.05;5.22;;;3.30;99.90;;;;;;5135102;27;20024;-66
2022/01/23 07:43:48;;;;;;;5.53;5.03;;;3.30;99.90;;;;;;5116886;27;20063;-65
2022/01/23 07:46:13;;;;;;;6.97;5.47;;;3.30;99.90;;;;;;5134738;27;20514;-65
2022/01/23 07:48:39;;;;;;;7.00;6.00;;;3.30;99.90;;;;;;5134465;27;20503;-66
2022/01/23 07:51:05;;;;;;;6.35;5.65;;;3.30;99.90;;;;;;5134201;27;21095;-66
2022/01/23 07:53:31;;;;;;;6.28;5.20;;;3.30;99.90;;;;;;5131688;27;20057;-65
2022/01/23 07:55:56;;;;;;;7.30;5.72;;;3.30;99.90;;;;;;5133780;27;20039;-65
2022/01/23 07:58:22;;;;;;;6.47;5.38;;;3.30;99.90;;;;;;5134475;27;20027;-65
2022/01/23 08:00:48;;;;;;;7.70;5.97;;;3.30;99.90;;;;;;5134205;27;20040;-65
2022/01/23 08:03:14;;;;;;;6.53;5.70;;;3.30;99.90;;;;;;5133769;27;20304;-65
2022/01/23 08:05:40;;;;;;;7.38;5.63;;;3.30;99.90;;;;;;5134179;27;20023;-63
2022/01/23 08:08:07;;;;;;;8.27;5.43;;;3.30;99.90;;;;;;5133452;27;20471;-64
2022/01/23 08:10:33;;;;;;;6.65;5.95;;;3.30;99.90;;;;;;5133485;27;20102;-65
2022/01/23 08:12:59;;;;;;;6.60;5.90;;;3.30;99.90;;;;;;5133510;27;20037;-64
2022/01/23 08:15:24;;;;;;;7.10;6.07;;;3.40;99.90;;;;;;5134316;27;20035;-64
2022/01/23 08:17:50;;;;;;;7.70;6.18;;;3.40;99.90;;;;;;5134397;27;20023;-64
2022/01/23 08:20:16;;;;;;;7.15;6.00;;;3.40;99.90;;;;;;5110868;27;20079;-65
2022/01/23 08:22:41;;;;;;;6.70;6.05;;;3.40;99.90;;;;;;5128725;27;20026;-65
2022/01/23 08:25:07;;;;;;;7.93;6.97;;;3.40;99.90;;;;;;5129922;27;20038;-64
2022/01/23 08:27:34;;;;;;;7.68;6.53;;;3.40;99.90;;;;;;5134123;27;20023;-64
2022/01/23 08:30:01;;;;;;;7.88;6.78;;;3.40;99.90;;;;;;5120554;27;20076;-64
2022/01/23 08:32:26;;;;;;;6.93;6.22;;;3.40;99.90;;;;;;5113214;28;20027;-65
2022/01/23 08:34:52;;;;;;;7.07;6.38;;;3.40;99.90;;;;;;5113514;28;20119;-65
2022/01/23 08:37:19;;;;;;;8.20;6.55;;;3.40;99.90;;;;;;5113477;27;20373;-65
2022/01/23 08:39:45;;;;;;;7.70;6.65;;;3.40;99.90;;;;;;5112742;28;20023;-65
2022/01/23 08:42:15;;;;;;;7.47;5.57;;;3.40;99.90;;;;;;5112798;28;20092;-65
2022/01/23 08:44:42;;;;;;;7.47;5.80;;;3.40;99.90;;;;;;5112962;28;20050;-64
2022/01/23 08:47:08;;;;;;;6.20;5.32;;;3.40;99.90;;;;;;5112327;28;20028;-64
2022/01/23 08:49:39;;;;;;;7.70;5.95;;;3.40;99.90;;;;;;5113043;28;20029;-64
2022/01/23 08:52:06;;;;;;;6.53;5.93;;;3.40;99.90;;;;;;5127506;27;20080;-65
2022/01/23 08:54:31;;;;;;;6.82;5.45;;;3.40;99.90;;;;;;5112185;27;20126;-65
2022/01/23 08:56:57;;;;;;;7.00;6.15;;;3.40;99.90;;;;;;5112786;28;20104;-65
2022/01/23 08:59:24;;;;;;;7.13;6.32;;;3.40;99.90;;;;;;5112746;28;20030;-65
2022/01/23 09:01:50;;;;;;;7.82;6.93;;;3.40;99.90;;;;;;5124715;27;20494;-66
2022/01/23 09:04:16;;;;;;;9.32;7.65;;;3.30;99.90;;;;;;5132959;27;20054;-65
2022/01/23 09:06:46;;;;;;;9.00;7.35;;;3.40;99.90;;;;;;5133369;27;20023;-66
2022/01/23 09:09:18;;;;;;;10.68;7.72;;;3.40;99.90;;;;;;5132640;27;20033;-65
2022/01/23 09:12:05;;;;;;;11.32;8.75;;;3.40;99.90;;;;;;5133227;27;20037;-65
2022/01/23 09:14:31;;;;;;;12.02;9.25;;;3.40;99.90;;;;;;5132993;27;20122;-65
2022/01/23 09:16:58;;;;;;;12.00;10.57;;;3.40;99.90;;;;;;5133017;27;20102;-65
2022/01/23 09:19:25;;;;;;;13.43;10.20;;;3.40;99.90;;;;;;5132309;27;20455;-65
2022/01/23 09:21:52;;;;;;;13.13;10.45;;;3.40;99.90;;;;;;5133005;27;20111;-66
2022/01/23 09:24:19;;;;;;;14.52;11.65;;;3.40;99.90;;;;;;5132185;27;20113;-65
2022/01/23 09:26:51;;;;;;;14.85;11.05;;;3.40;99.90;;;;;;5133025;27;20405;-65
2022/01/23 09:29:25;;;;;;;13.50;10.57;;;3.40;99.90;;;;;;5130358;27;20019;-65
2022/01/23 09:31:50;;;;;;;13.05;11.07;;;3.40;99.90;;;;;;5132553;27;20079;-67
2022/01/23 09:34:24;;;;;;;13.65;10.85;;;3.40;99.90;;;;;;5131305;27;20027;-65
2022/01/23 09:36:51;;;;;;;13.98;11.52;;;3.40;99.90;;;;;;5132551;27;20023;-65
2022/01/23 09:39:20;;;;;;;13.35;11.55;;;3.40;99.90;;;;;;5132176;27;20102;-65
2022/01/23 09:41:49;;;;;;;12.93;11.35;;;3.40;99.90;;;;;;5132677;27;20403;-65
2022/01/23 09:44:18;;;;;;;15.07;11.77;;;3.40;99.90;;;;;;5131654;27;20032;-65
2022/01/23 09:46:45;;;;;;;14.43;12.15;;;3.40;99.90;;;;;;5131859;27;20031;-65
2022/01/23 09:49:14;;;;;;;14.95;12.48;;;3.40;99.90;;;;;;5108075;27;20023;-65
2022/01/23 09:51:45;;;;;;;18.27;13.32;;;3.40;99.90;;;;;;5131880;27;20495;-65
2022/01/23 09:54:13;;;;;;;15.27;12.90;;;3.40;99.90;;;;;;5128422;27;20039;-64
2022/01/23 09:56:41;;;;;;;18.20;13.73;;;3.40;99.90;;;;;;5132350;28;20027;-64
2022/01/23 09:59:10;;;;;;;16.27;13.38;;;3.40;99.90;;;;;;5131909;28;20030;-65
2022/01/23 10:01:40;;;;;;;17.15;13.63;;;3.40;99.90;;;;;;5132819;28;20126;-65
2022/01/23 10:04:06;;;;;;;16.90;13.55;;;3.40;99.90;;;;;;5113855;28;20024;-64
2022/01/23 10:06:31;;;;;;;18.17;14.30;;;3.40;99.90;;;;;;5132981;28;20027;-64
2022/01/23 10:08:59;;;;;;;21.23;14.65;;;3.40;99.90;;;;;;5132943;28;20363;-65
2022/01/23 10:11:25;;;;;;;17.27;14.68;;;3.40;99.90;;;;;;5131670;28;20076;-64
2022/01/23 10:13:51;;;;;;;19.30;14.60;;;3.40;99.90;;;;;;5132282;28;20053;-65
2022/01/23 10:16:17;;;;;;;18.15;14.90;;;3.40;99.90;;;;;;5131863;28;20027;-64
2022/01/23 10:18:44;;;;;;;17.65;15.00;;;3.40;99.90;;;;;;5132207;28;20471;-65
2022/01/23 10:21:13;;;;;;;18.02;14.65;;;3.40;99.90;;;;;;5122740;28;20030;-76
2022/01/23 10:23:39;;;;;;;18.13;14.85;;;3.40;99.90;;;;;;5129529;28;20039;-67
2022/01/23 10:26:06;;;;;;;17.08;14.70;;;3.50;99.90;;;;;;5128205;28;20031;-66
2022/01/23 10:28:34;;;;;;;17.23;14.45;;;3.50;99.90;;;;;;5132513;28;20388;-66
2022/01/23 10:31:04;;;;;;;18.95;14.75;;;3.50;99.90;;;;;;5116579;28;20132;-66
2022/01/23 10:33:33;;;;;;;19.80;15.00;;;3.60;99.90;;;;;;5112166;28;20034;-66
2022/01/23 10:36:12;;;;;;;17.10;14.75;;;3.60;99.90;;;;;;5112036;28;20060;-66
2022/01/23 10:38:54;;;;;;;18.35;14.70;;;3.60;99.90;;;;;;5095076;28;20027;-67
2022/01/23 10:49:54;;;;;;;17.02;14.35;;;3.70;99.90;;;;;;5112148;28;20476;-67
2022/01/23 10:52:34;;;;;;;17.08;15.20;;;3.70;99.90;;;;;;5111401;28;20027;-66
2022/01/23 10:55:25;;;;;;;17.55;14.38;;;3.70;99.90;;;;;;5112512;28;20058;-67
2022/01/23 10:57:54;;;;;;;20.17;15.50;;;3.70;99.90;;;;;;5111967;28;20031;-67
2022/01/23 11:00:25;;;;;;;21.65;15.55;;;3.80;99.90;;;;;;5111222;28;20034;-64
2022/01/23 11:02:52;;;;;;;17.58;14.75;;;3.80;99.90;;;;;;5113402;28;20024;-67
2022/01/23 11:05:19;;;;;;;18.98;15.32;;;3.80;99.90;;;;;;5115261;28;20046;-66
2022/01/23 11:07:47;;;;;;;19.67;15.55;;;3.70;99.90;;;;;;5122681;27;20382;-66
2022/01/23 11:10:19;;;;;;;18.92;15.50;;;3.80;99.90;;;;;;5135455;27;20415;-65
2022/01/23 11:18:08;;;;;;;21.17;15.65;;;3.80;99.90;;;;;;5135983;27;20065;-65
2022/01/23 11:20:49;;;;;;;22.75;16.23;;;3.80;99.90;;;;;;5135583;27;20376;-65
2022/01/23 11:23:20;;;;;;;21.20;14.85;;;3.90;99.90;;;;;;5135631;27;20076;-65
2022/01/23 11:26:10;;;;;;;21.88;15.85;;;4.00;99.90;;;;;;5136340;27;20035;-64
2022/01/23 11:28:44;;;;;;;22.90;14.35;;;4.00;99.90;;;;;;5135094;27;20528;-64
2022/01/23 11:31:14;;;;;;;18.73;13.98;;;4.00;99.90;;;;;;5135019;27;20034;-64
2022/01/23 11:33:40;;;;;;;20.08;14.65;;;4.00;99.90;;;;;;5135808;27;20027;-64
2022/01/23 11:36:06;;;;;;;20.85;15.45;;;4.00;99.90;;;;;;5134961;27;20027;-64
2022/01/23 11:38:33;;;;;;;20.42;14.82;;;4.10;99.90;;;;;;5134580;27;20110;-64
2022/01/23 11:54:48;;;;;;;20.48;15.13;;;4.20;99.90;;;;;;5134803;27;20062;-65
2022/01/23 11:57:36;;;;;;;18.30;13.95;;;4.20;99.90;;;;;;5134512;27;20027;-65
2022/01/23 12:00:11;;;;;;;19.13;13.88;;;4.20;99.90;;;;;;5134961;27;20027;-65
2022/01/23 12:02:40;;;;;;;19.85;14.05;;;4.20;99.90;;;;;;5135243;27;20027;-67
2022/01/23 12:05:16;;;;;;;18.92;14.10;;;4.20;99.90;;;;;;5134804;27;20042;-67
2022/01/23 12:07:45;;;;;;;18.75;13.65;;;4.20;99.90;;;;;;5135050;27;20027;-66
2022/01/23 12:11:15;;;;;;;21.83;15.00;;;4.20;99.90;;;;;;5134220;27;20035;-65
2022/01/23 12:13:57;;;;;;;19.77;14.45;;;4.20;99.90;;;;;;5123126;27;20035;-67
2022/01/23 12:16:33;;;;;;;19.92;14.63;;;4.30;99.90;;;;;;5131353;27;20039;-64
2022/01/23 12:19:21;;;;;;;21.65;14.25;;;4.30;99.90;;;;;;5133623;27;20019;-65
2022/01/23 12:21:48;;;;;;;20.73;14.57;;;4.30;99.90;;;;;;5132084;27;20015;-65
2022/01/23 12:24:16;;;;;;;20.88;14.75;;;4.30;99.90;;;;;;5133555;27;20114;-64
2022/01/23 12:26:42;;;;;;;22.80;15.50;;;4.30;99.90;;;;;;5123027;27;20031;-64
2022/01/23 12:29:26;;;;;;;20.00;14.60;;;4.30;99.90;;;;;;5113810;28;20035;-65
2022/01/23 12:32:18;;;;;;;20.80;13.88;;;4.30;99.90;;;;;;5113707;28;20027;-66
2022/01/23 12:34:51;;;;;;;20.35;14.75;;;4.30;99.90;;;;;;5113973;28;20529;-66
2022/01/23 12:37:17;;;;;;;18.13;13.65;;;4.40;99.90;;;;;;5113285;28;20031;-64
2022/01/23 12:39:43;;;;;;;20.30;14.70;;;4.30;99.90;;;;;;5113796;28;20031;-65
2022/01/23 12:42:09;;;;;;;19.73;14.05;;;4.40;99.90;;;;;;5133314;27;20429;-66
2022/01/23 12:44:38;;;;;;;19.83;13.75;;;4.40;99.90;;;;;;5115275;27;20023;-65
2022/01/23 12:47:22;;;;;;;20.42;13.90;;;4.40;99.90;;;;;;5134132;27;20058;-66
2022/01/23 12:49:52;;;;;;;19.13;13.68;;;4.40;99.90;;;;;;5134404;27;20019;-67
2022/01/23 12:52:21;;;;;;;17.73;13.57;;;4.40;99.90;;;;;;5133660;27;20096;-66
2022/01/23 12:54:46;;;;;;;18.67;13.52;;;4.40;99.90;;;;;;5134027;27;20047;-66
2022/01/23 12:57:15;;;;;;;20.48;14.93;;;4.50;99.90;;;;;;5133954;27;20034;-65
2022/01/23 12:59:43;;;;;;;20.50;14.30;;;4.40;99.90;;;;;;5115522;27;20487;-66
2022/01/23 13:02:15;;;;;;;18.50;13.77;;;4.50;99.90;;;;;;5115321;27;20355;-66
2022/01/23 13:04:44;;;;;;;21.00;13.43;;;4.50;99.90;;;;;;5134252;27;20074;-65
2022/01/23 13:07:29;;;;;;;20.13;14.10;;;4.50;99.90;;;;;;5133497;27;20095;-65
2022/01/23 13:10:06;;;;;;;16.42;13.48;;;4.50;99.90;;;;;;5113409;28;20027;-65
2022/01/23 13:15:23;;;;;;;17.88;13.27;;;4.50;99.90;;;;;;5113173;28;20123;-66
2022/01/23 13:32:23;;;;;;;21.42;15.00;;;4.50;99.90;;;;;;5112735;28;20027;-65
2022/01/23 13:35:06;;;;;;;19.15;14.63;;;4.50;99.90;;;;;;5095690;28;20043;-66
2022/01/23 13:37:36;;;;;;;19.45;14.27;;;4.50;99.90;;;;;;5112341;28;20028;-67
2022/01/23 13:40:13;;;;;;;16.92;13.63;;;4.50;99.90;;;;;;5112857;28;20028;-67
2022/01/23 13:47:57;;;;;;;18.88;14.15;;;4.50;99.90;;;;;;5112113;28;20047;-65
2022/01/23 13:59:19;;;;;;;15.30;12.50;;;4.50;99.90;;;;;;5112297;28;20089;-67
2022/01/23 14:02:18;;;;;;;15.02;11.38;;;4.60;99.90;;;;;;5112745;28;20038;-66
2022/01/23 14:04:41;;;;;;;13.35;10.57;;;4.60;99.90;;;;;;5110691;28;20036;-65
2022/01/23 14:07:07;;;;;;;14.48;11.05;;;4.60;99.90;;;;;;5112437;28;20059;-64
2022/01/23 14:09:38;;;;;;;15.52;12.07;;;4.60;99.90;;;;;;5111595;28;20488;-65
2022/01/23 14:12:09;;;;;;;16.73;11.48;;;4.60;99.90;;;;;;5112305;28;20030;-65
2022/01/23 14:14:35;;;;;;;;;;;4.60;99.90;;;;;;5112074;28;20027;-64
2022/01/23 14:17:32;;;;;;;12.52;10.30;;;4.60;99.90;;;;;;5112366;28;19911;-65
2022/01/23 14:20:12;;;;;;;15.93;11.15;;;4.60;99.90;;;;;;5111073;28;20077;-65
2022/01/23 14:22:42;;;;;;;15.13;11.35;;;4.60;99.90;;;;;;5111686;28;20021;-66
2022/01/23 14:25:21;;;;;;;17.38;12.68;;;4.60;99.90;;;;;;5112281;28;20031;-65
2022/01/23 14:28:10;;;;;;;16.08;12.27;;;4.60;99.90;;;;;;5110717;28;20073;-65
2022/01/23 14:31:15;;;;;;;14.77;12.00;;;4.60;99.90;;;;;;5100802;28;20025;-65
2022/01/23 14:33:41;;;;;;;17.25;13.35;;;4.60;99.90;;;;;;5082264;28;20040;-65
2022/01/23 14:36:23;;;;;;;17.35;11.73;;;4.60;99.90;;;;;;5091855;28;20036;-64
2022/01/23 14:39:05;;;;;;;16.60;11.82;;;4.60;99.90;;;;;;5095410;28;20027;-65
2022/01/23 14:41:37;;;;;;;16.75;11.75;;;4.60;99.90;;;;;;5095154;28;20032;-67
2022/01/23 14:44:18;;;;;;;12.52;10.32;;;4.60;99.90;;;;;;5077647;28;20322;-65
2022/01/23 14:46:54;;;;;;;13.00;10.52;;;4.60;99.90;;;;;;5094973;28;20043;-65
2022/01/23 14:49:23;;;;;;;12.32;9.88;;;4.60;99.90;;;;;;5095527;28;20143;-65
2022/01/23 14:51:50;;;;;;;11.60;9.50;;;4.60;99.90;;;;;;5095343;28;20039;-66
2022/01/23 14:54:17;;;;;;;16.45;10.50;;;4.60;99.90;;;;;;5099207;28;20052;-65
2022/01/23 14:56:43;;;;;;;11.50;10.05;;;4.70;99.90;;;;;;5115184;28;20071;-66
2022/01/23 14:59:14;;;;;;;12.40;9.50;;;4.60;99.90;;;;;;5115812;28;20023;-66
2022/01/23 15:01:41;;;;;;;12.30;9.90;;;4.70;99.90;;;;;;5106160;27;20509;-66
2022/01/23 15:04:10;;;;;;;11.85;9.02;;;4.60;99.90;;;;;;5136145;27;20031;-66
2022/01/23 15:06:40;;;;;;;11.68;8.68;;;4.60;99.90;;;;;;5135534;27;20046;-64
2022/01/23 15:09:08;;;;;;;11.10;8.68;;;4.60;99.90;;;;;;5136035;27;20019;-66
2022/01/23 15:11:34;;;;;;;10.35;8.30;;;4.70;99.90;;;;;;5135455;27;20062;-67
2022/01/23 15:14:01;;;;;;;8.65;7.78;;;4.60;99.90;;;;;;5117534;27;20030;-68
2022/01/23 15:16:27;;;;;;;13.27;8.75;;;4.60;99.90;;;;;;5135228;27;20035;-68
2022/01/23 15:18:52;;;;;;;10.05;8.45;;;4.60;99.90;;;;;;5117554;27;20034;-67
2022/01/23 15:21:18;;;;;;;11.48;8.80;;;4.60;99.90;;;;;;5135830;27;20034;-67
2022/01/23 15:23:44;;;;;;;12.15;9.20;;;4.60;99.90;;;;;;5134881;27;20240;-65
2022/01/23 15:26:09;;;;;;;10.90;8.70;;;4.60;99.90;;;;;;5135634;27;20023;-65
2022/01/23 15:28:35;;;;;;;12.95;9.60;;;4.60;99.90;;;;;;5135237;27;20019;-67
2022/01/23 15:31:01;;;;;;;13.20;9.70;;;4.60;99.90;;;;;;5135401;27;20028;-64
2022/01/23 15:33:26;;;;;;;14.93;10.77;;;4.60;99.90;;;;;;5134781;27;20031;-65
2022/01/23 15:35:52;;;;;;;16.67;11.77;;;4.60;99.90;;;;;;5135571;27;20031;-64
2022/01/23 15:38:21;;;;;;;16.02;12.93;;;4.50;99.90;;;;;;5135544;27;20092;-64
2022/01/23 15:40:48;;;;;;;19.55;13.68;;;4.50;99.90;;;;;;5134768;27;20507;-67
2022/01/23 15:43:14;;;;;;;19.20;14.00;;;4.60;99.90;;;;;;5135106;27;20031;-65
2022/01/23 15:45:41;;;;;;;20.50;14.25;;;4.50;99.90;;;;;;5134711;27;20027;-65
2022/01/23 15:48:06;;;;;;;22.42;15.32;;;4.60;99.90;;;;;;5135043;27;20042;-66
2022/01/23 15:50:32;;;;;;;18.15;13.98;;;4.60;99.90;;;;;;5134635;27;20023;-66
2022/01/23 15:52:58;;;;;;;20.88;14.55;;;4.50;99.90;;;;;;5135513;27;20470;-65
2022/01/23 15:55:28;;;;;;;22.38;15.50;;;4.50;99.90;;;;;;5135250;27;20051;-65
2022/01/23 16:00:39;;;;;;;20.83;15.68;;;4.50;99.90;;;;;;5134560;27;20083;-65
2022/01/23 16:03:05;;;;;;;18.50;14.27;;;4.50;99.90;;;;;;5135128;27;20031;-65
2022/01/23 16:05:30;;;;;;;20.38;14.05;;;4.50;99.90;;;;;;5134431;27;20126;-65
2022/01/23 16:07:56;;;;;;;19.02;14.77;;;4.50;99.90;;;;;;5135016;27;20053;-66
2022/01/23 16:10:22;;;;;;;18.58;13.50;;;4.50;99.90;;;;;;5134739;27;20023;-66
2022/01/23 16:12:48;;;;;;;17.48;13.02;;;4.50;99.90;;;;;;5134338;27;20111;-66
2022/01/23 16:15:15;;;;;;;16.20;11.35;;;4.50;99.90;;;;;;5116206;27;20498;-66
2022/01/23 16:17:41;;;;;;;15.35;11.98;;;4.50;99.90;;;;;;5134496;27;20037;-66
2022/01/23 16:20:09;;;;;;;14.02;11.25;;;4.50;99.90;;;;;;5134874;27;20053;-66